sensor_id;sensor_type;location;lat;lon;timestamp;temperature;humidity
27384;DHT22;14851;51.166;4.760;2022-11-14T00:01:42;3.20;99.90
27384;DHT22;14851;51.166;4.760;2022-11-14T00:04:27;3.20;99.90
27384;DHT22;14851;51.166;4.760;2022-11-14T00:07:11;3.10;99.90
27384;DHT22;14851;51.166;4.760;2022-11-14T00:10:05;3.10;99.90
27384;DHT22;14851;51.166;4.760;2022-11-14T00:12:52;3.10;99.90
27384;DHT22;14851;51.166;4.760;2022-11-14T00:15:37;3.10;99.90
27384;DHT22;14851;51.166;4.760;2022-11-14T00:18:26;3.10;99.90
27384;DHT22;14851;51.166;4.760;2022-11-14T00:21:13;3.10;99.90
27384;DHT22;14851;51.166;4.760;2022-11-14T00:23:58;3.10;99.90
27384;DHT22;14851;51.166;4.760;2022-11-14T00:26:51;3.10;99.90
27384;DHT22;14851;51.166;4.760;2022-11-14T00:29:38;3.10;99.90
27384;DHT22;14851;51.166;4.760;2022-11-14T00:32:29;3.10;99.90
27384;DHT22;14851;51.166;4.760;2022-11-14T00:35:20;3.10;99.90
27384;DHT22;14851;51.166;4.760;2022-11-14T00:38:07;3.10;99.90
27384;DHT22;14851;51.166;4.760;2022-11-14T00:40:56;3.00;99.90
27384;DHT22;14851;51.166;4.760;2022-11-14T00:43:43;3.00;99.90
27384;DHT22;14851;51.166;4.760;2022-11-14T00:46:27;2.90;99.90
27384;DHT22;14851;51.166;4.760;2022-11-14T00:49:15;2.90;99.90
27384;DHT22;14851;51.166;4.760;2022-11-14T00:52:02;2.90;99.90
27384;DHT22;14851;51.166;4.760;2022-11-14T00:54:54;2.80;99.90
27384;DHT22;14851;51.166;4.760;2022-11-14T00:57:45;2.80;99.90
27384;DHT22;14851;51.166;4.760;2022-11-14T01:00:38;2.80;99.90
27384;DHT22;14851;51.166;4.760;2022-11-14T01:03:25;2.70;99.90
27384;DHT22;14851;51.166;4.760;2022-11-14T01:06:13;2.60;99.90
27384;DHT22;14851;51.166;4.760;2022-11-14T01:08:59;2.60;99.90
27384;DHT22;14851;51.166;4.760;2022-11-14T01:11:46;2.60;99.90
27384;DHT22;14851;51.166;4.760;2022-11-14T01:14:32;2.60;99.90
27384;DHT22;14851;51.166;4.760;2022-11-14T01:17:22;2.60;99.90
27384;DHT22;14851;51.166;4.760;2022-11-14T01:20:21;2.60;99.90
27384;DHT22;14851;51.166;4.760;2022-11-14T01:23:15;2.60;99.90
27384;DHT22;14851;51.166;4.760;2022-11-14T01:26:12;2.60;99.90
27384;DHT22;14851;51.166;4.760;2022-11-14T01:29:09;2.60;99.90
27384;DHT22;14851;51.166;4.760;2022-11-14T01:31:59;2.60;99.90
27384;DHT22;14851;51.166;4.760;2022-11-14T01:34:46;2.40;99.90
27384;DHT22;14851;51.166;4.760;2022-11-14T01:37:34;2.40;99.90
27384;DHT22;14851;51.166;4.760;2022-11-14T01:40:27;2.40;99.90
27384;DHT22;14851;51.166;4.760;2022-11-14T01:48:58;2.30;99.90
27384;DHT22;14851;51.166;4.760;2022-11-14T01:51:58;2.20;99.90
27384;DHT22;14851;51.166;4.760;2022-11-14T01:54:48;2.30;99.90
27384;DHT22;14851;51.166;4.760;2022-11-14T01:57:43;2.20;99.90
27384;DHT22;14851;51.166;4.760;2022-11-14T02:00:31;2.20;99.90
27384;DHT22;14851;51.166;4.760;2022-11-14T02:03:18;2.20;99.90
27384;DHT22;14851;51.166;4.760;2022-11-14T02:06:15;2.10;99.90
27384;DHT22;14851;51.166;4.760;2022-11-14T02:09:06;2.00;99.90
27384;DHT22;14851;51.166;4.760;2022-11-14T02:11:52;2.00;99.90
27384;DHT22;14851;51.166;4.760;2022-11-14T02:14:42;2.10;99.90
27384;DHT22;14851;51.166;4.760;2022-11-14T02:17:31;2.00;99.90
27384;DHT22;14851;51.166;4.760;2022-11-14T02:20:23;2.00;99.90
27384;DHT22;14851;51.166;4.760;2022-11-14T02:23:14;2.00;99.90
27384;DHT22;14851;51.166;4.760;2022-11-14T02:26:00;2.00;99.90
27384;DHT22;14851;51.166;4.760;2022-11-14T02:28:45;2.10;99.90
27384;DHT22;14851;51.166;4.760;2022-11-14T02:31:33;2.00;99.90
27384;DHT22;14851;51.166;4.760;2022-11-14T02:34:17;2.00;99.90
27384;DHT22;14851;51.166;4.760;2022-11-14T02:37:04;2.00;99.90
27384;DHT22;14851;51.166;4.760;2022-11-14T02:39:51;2.00;99.90
27384;DHT22;14851;51.166;4.760;2022-11-14T02:42:36;2.00;99.90
27384;DHT22;14851;51.166;4.760;2022-11-14T02:45:25;2.00;99.90
27384;DHT22;14851;51.166;4.760;2022-11-14T02:48:12;2.00;99.90
27384;DHT22;14851;51.166;4.760;2022-11-14T02:50:59;2.00;99.90
27384;DHT22;14851;51.166;4.760;2022-11-14T02:53:46;1.90;99.90
27384;DHT22;14851;51.166;4.760;2022-11-14T02:56:31;2.00;99.90
27384;DHT22;14851;51.166;4.760;2022-11-14T02:59:16;1.90;99.90
27384;DHT22;14851;51.166;4.760;2022-11-14T03:02:00;1.90;99.90
27384;DHT22;14851;51.166;4.760;2022-11-14T03:04:47;1.90;99.90
27384;DHT22;14851;51.166;4.760;2022-11-14T03:07:35;1.90;99.90
27384;DHT22;14851;51.166;4.760;2022-11-14T03:10:22;1.80;99.90
27384;DHT22;14851;51.166;4.760;2022-11-14T03:13:06;1.70;99.90
27384;DHT22;14851;51.166;4.760;2022-11-14T03:15:51;1.70;99.90
27384;DHT22;14851;51.166;4.760;2022-11-14T03:18:36;1.70;99.90
27384;DHT22;14851;51.166;4.760;2022-11-14T03:21:22;1.70;99.90
27384;DHT22;14851;51.166;4.760;2022-11-14T03:24:07;1.70;99.90
27384;DHT22;14851;51.166;4.760;2022-11-14T03:26:55;1.70;99.90
27384;DHT22;14851;51.166;4.760;2022-11-14T03:29:40;1.70;99.90
27384;DHT22;14851;51.166;4.760;2022-11-14T03:32:24;1.70;99.90
27384;DHT22;14851;51.166;4.760;2022-11-14T03:35:09;1.60;99.90
27384;DHT22;14851;51.166;4.760;2022-11-14T03:38:01;1.60;99.90
27384;DHT22;14851;51.166;4.760;2022-11-14T03:40:49;1.60;99.90
27384;DHT22;14851;51.166;4.760;2022-11-14T03:43:33;1.60;99.90
27384;DHT22;14851;51.166;4.760;2022-11-14T03:46:18;1.60;99.90
27384;DHT22;14851;51.166;4.760;2022-11-14T03:49:05;1.60;99.90
27384;DHT22;14851;51.166;4.760;2022-11-14T03:51:52;1.50;99.90
27384;DHT22;14851;51.166;4.760;2022-11-14T03:54:37;1.50;99.90
27384;DHT22;14851;51.166;4.760;2022-11-14T03:57:29;1.60;99.90
27384;DHT22;14851;51.166;4.760;2022-11-14T04:00:16;1.60;99.90
27384;DHT22;14851;51.166;4.760;2022-11-14T04:03:01;1.60;99.90
27384;DHT22;14851;51.166;4.760;2022-11-14T04:05:47;1.60;99.90
27384;DHT22;14851;51.166;4.760;2022-11-14T04:08:32;1.60;99.90
27384;DHT22;14851;51.166;4.760;2022-11-14T04:11:17;1.50;99.90
27384;DHT22;14851;51.166;4.760;2022-11-14T04:14:01;1.60;99.90
27384;DHT22;14851;51.166;4.760;2022-11-14T04:16:49;1.60;99.90
27384;DHT22;14851;51.166;4.760;2022-11-14T04:19:33;1.50;99.90
27384;DHT22;14851;51.166;4.760;2022-11-14T04:22:18;1.50;99.90
27384;DHT22;14851;51.166;4.760;2022-11-14T04:25:06;1.40;99.90
27384;DHT22;14851;51.166;4.760;2022-11-14T04:27:55;1.60;99.90
27384;DHT22;14851;51.166;4.760;2022-11-14T04:30:42;1.50;99.90
27384;DHT22;14851;51.166;4.760;2022-11-14T04:33:35;1.20;99.90
27384;DHT22;14851;51.166;4.760;2022-11-14T04:36:23;1.20;99.90
27384;DHT22;14851;51.166;4.760;2022-11-14T04:39:14;1.30;99.90
27384;DHT22;14851;51.166;4.760;2022-11-14T04:41:59;1.40;99.90
27384;DHT22;14851;51.166;4.760;2022-11-14T04:44:46;1.40;99.90
27384;DHT22;14851;51.166;4.760;2022-11-14T04:47:36;1.30;99.90
27384;DHT22;14851;51.166;4.760;2022-11-14T04:50:28;1.40;99.90
27384;DHT22;14851;51.166;4.760;2022-11-14T04:53:15;1.40;99.90
27384;DHT22;14851;51.166;4.760;2022-11-14T04:56:07;1.40;99.90
27384;DHT22;14851;51.166;4.760;2022-11-14T04:58:54;1.40;99.90
27384;DHT22;14851;51.166;4.760;2022-11-14T05:01:39;1.40;99.90
27384;DHT22;14851;51.166;4.760;2022-11-14T05:04:23;1.40;99.90
27384;DHT22;14851;51.166;4.760;2022-11-14T05:07:10;1.50;99.90
27384;DHT22;14851;51.166;4.760;2022-11-14T05:09:59;1.50;99.90
27384;DHT22;14851;51.166;4.760;2022-11-14T05:12:44;1.40;99.90
27384;DHT22;14851;51.166;4.760;2022-11-14T05:15:31;1.60;99.90
27384;DHT22;14851;51.166;4.760;2022-11-14T05:18:16;1.40;99.90
27384;DHT22;14851;51.166;4.760;2022-11-14T05:21:00;1.30;99.90
27384;DHT22;14851;51.166;4.760;2022-11-14T05:23:44;1.20;99.90
27384;DHT22;14851;51.166;4.760;2022-11-14T05:26:28;1.00;99.90
27384;DHT22;14851;51.166;4.760;2022-11-14T05:29:15;1.00;99.90
27384;DHT22;14851;51.166;4.760;2022-11-14T05:32:00;1.00;99.90
27384;DHT22;14851;51.166;4.760;2022-11-14T05:34:46;1.10;99.90
27384;DHT22;14851;51.166;4.760;2022-11-14T05:37:35;1.10;99.90
27384;DHT22;14851;51.166;4.760;2022-11-14T05:40:20;1.00;99.90
27384;DHT22;14851;51.166;4.760;2022-11-14T05:43:05;1.10;99.90
27384;DHT22;14851;51.166;4.760;2022-11-14T05:45:50;1.10;99.90
27384;DHT22;14851;51.166;4.760;2022-11-14T05:48:36;1.20;99.90
27384;DHT22;14851;51.166;4.760;2022-11-14T05:51:20;1.20;99.90
27384;DHT22;14851;51.166;4.760;2022-11-14T05:54:07;1.20;99.90
27384;DHT22;14851;51.166;4.760;2022-11-14T05:56:52;1.20;99.90
27384;DHT22;14851;51.166;4.760;2022-11-14T05:59:36;1.30;99.90
27384;DHT22;14851;51.166;4.760;2022-11-14T06:02:20;1.30;99.90
27384;DHT22;14851;51.166;4.760;2022-11-14T06:05:07;1.40;99.90
27384;DHT22;14851;51.166;4.760;2022-11-14T06:07:56;1.20;99.90
27384;DHT22;14851;51.166;4.760;2022-11-14T06:10:41;1.00;99.90
27384;DHT22;14851;51.166;4.760;2022-11-14T06:13:26;0.90;99.90
27384;DHT22;14851;51.166;4.760;2022-11-14T06:16:13;0.80;99.90
27384;DHT22;14851;51.166;4.760;2022-11-14T06:18:57;0.60;99.90
27384;DHT22;14851;51.166;4.760;2022-11-14T06:21:43;0.50;99.90
27384;DHT22;14851;51.166;4.760;2022-11-14T06:24:28;0.60;99.90
27384;DHT22;14851;51.166;4.760;2022-11-14T06:27:13;0.70;99.90
27384;DHT22;14851;51.166;4.760;2022-11-14T06:29:58;0.80;99.90
27384;DHT22;14851;51.166;4.760;2022-11-14T06:32:43;0.80;99.90
27384;DHT22;14851;51.166;4.760;2022-11-14T06:35:29;0.90;99.90
27384;DHT22;14851;51.166;4.760;2022-11-14T06:38:20;0.90;99.90
27384;DHT22;14851;51.166;4.760;2022-11-14T06:41:20;0.90;99.90
27384;DHT22;14851;51.166;4.760;2022-11-14T06:44:07;0.90;99.90
27384;DHT22;14851;51.166;4.760;2022-11-14T06:46:52;0.90;99.90
27384;DHT22;14851;51.166;4.760;2022-11-14T06:49:37;1.00;99.90
27384;DHT22;14851;51.166;4.760;2022-11-14T06:52:22;1.00;99.90
27384;DHT22;14851;51.166;4.760;2022-11-14T06:55:12;1.10;99.90
27384;DHT22;14851;51.166;4.760;2022-11-14T06:57:57;1.00;99.90
27384;DHT22;14851;51.166;4.760;2022-11-14T07:00:41;1.00;99.90
27384;DHT22;14851;51.166;4.760;2022-11-14T07:03:25;1.00;99.90
27384;DHT22;14851;51.166;4.760;2022-11-14T07:06:18;0.90;99.90
27384;DHT22;14851;51.166;4.760;2022-11-14T07:09:03;0.80;99.90
27384;DHT22;14851;51.166;4.760;2022-11-14T07:11:48;0.80;99.90
27384;DHT22;14851;51.166;4.760;2022-11-14T07:14:33;0.70;99.90
27384;DHT22;14851;51.166;4.760;2022-11-14T07:17:17;0.70;99.90
27384;DHT22;14851;51.166;4.760;2022-11-14T07:20:02;0.70;99.90
27384;DHT22;14851;51.166;4.760;2022-11-14T07:22:47;0.80;99.90
27384;DHT22;14851;51.166;4.760;2022-11-14T07:25:32;0.80;99.90
27384;DHT22;14851;51.166;4.760;2022-11-14T07:28:17;0.80;99.90
27384;DHT22;14851;51.166;4.760;2022-11-14T07:31:02;0.80;99.90
27384;DHT22;14851;51.166;4.760;2022-11-14T07:33:47;0.80;99.90
27384;DHT22;14851;51.166;4.760;2022-11-14T07:36:32;0.90;99.90
27384;DHT22;14851;51.166;4.760;2022-11-14T07:39:16;0.90;99.90
27384;DHT22;14851;51.166;4.760;2022-11-14T07:42:01;1.00;99.90
27384;DHT22;14851;51.166;4.760;2022-11-14T07:44:46;1.10;99.90
27384;DHT22;14851;51.166;4.760;2022-11-14T07:47:31;1.10;99.90
27384;DHT22;14851;51.166;4.760;2022-11-14T07:50:15;1.10;99.90
27384;DHT22;14851;51.166;4.760;2022-11-14T07:53:00;1.00;99.90
27384;DHT22;14851;51.166;4.760;2022-11-14T07:55:46;1.00;99.90
27384;DHT22;14851;51.166;4.760;2022-11-14T07:58:30;1.10;99.90
27384;DHT22;14851;51.166;4.760;2022-11-14T08:01:15;1.00;99.90
27384;DHT22;14851;51.166;4.760;2022-11-14T08:04:00;1.10;99.90
27384;DHT22;14851;51.166;4.760;2022-11-14T08:06:44;1.10;99.90
27384;DHT22;14851;51.166;4.760;2022-11-14T08:09:29;1.00;99.90
27384;DHT22;14851;51.166;4.760;2022-11-14T08:12:13;1.20;99.90
27384;DHT22;14851;51.166;4.760;2022-11-14T08:14:58;1.20;99.90
27384;DHT22;14851;51.166;4.760;2022-11-14T08:17:42;1.30;99.90
27384;DHT22;14851;51.166;4.760;2022-11-14T08:20:29;1.30;99.90
27384;DHT22;14851;51.166;4.760;2022-11-14T08:23:14;1.40;99.90
27384;DHT22;14851;51.166;4.760;2022-11-14T08:25:59;1.40;99.90
27384;DHT22;14851;51.166;4.760;2022-11-14T08:28:44;1.50;99.90
27384;DHT22;14851;51.166;4.760;2022-11-14T08:31:30;1.60;99.90
27384;DHT22;14851;51.166;4.760;2022-11-14T08:34:14;1.70;99.90
27384;DHT22;14851;51.166;4.760;2022-11-14T08:37:00;1.80;99.90
27384;DHT22;14851;51.166;4.760;2022-11-14T08:39:45;2.00;99.90
27384;DHT22;14851;51.166;4.760;2022-11-14T08:42:33;2.10;99.90
27384;DHT22;14851;51.166;4.760;2022-11-14T08:45:18;2.10;99.90
27384;DHT22;14851;51.166;4.760;2022-11-14T08:48:02;2.10;99.90
27384;DHT22;14851;51.166;4.760;2022-11-14T08:50:46;2.20;99.90
27384;DHT22;14851;51.166;4.760;2022-11-14T08:53:32;2.20;99.90
27384;DHT22;14851;51.166;4.760;2022-11-14T08:56:16;2.30;99.90
27384;DHT22;14851;51.166;4.760;2022-11-14T08:59:04;2.30;99.90
27384;DHT22;14851;51.166;4.760;2022-11-14T09:01:49;2.30;99.90
27384;DHT22;14851;51.166;4.760;2022-11-14T09:04:33;2.50;99.90
27384;DHT22;14851;51.166;4.760;2022-11-14T09:07:17;2.60;99.90
27384;DHT22;14851;51.166;4.760;2022-11-14T09:10:03;2.60;99.90
27384;DHT22;14851;51.166;4.760;2022-11-14T09:12:56;2.70;99.90
27384;DHT22;14851;51.166;4.760;2022-11-14T09:15:42;2.90;99.90
27384;DHT22;14851;51.166;4.760;2022-11-14T09:18:29;2.90;99.90
27384;DHT22;14851;51.166;4.760;2022-11-14T09:21:14;2.90;99.90
27384;DHT22;14851;51.166;4.760;2022-11-14T09:23:58;3.00;99.90
27384;DHT22;14851;51.166;4.760;2022-11-14T09:26:45;3.00;99.90
27384;DHT22;14851;51.166;4.760;2022-11-14T09:29:33;3.10;99.90
27384;DHT22;14851;51.166;4.760;2022-11-14T09:32:19;3.10;99.90
27384;DHT22;14851;51.166;4.760;2022-11-14T09:35:04;3.20;99.90
27384;DHT22;14851;51.166;4.760;2022-11-14T09:38:01;3.20;99.90
27384;DHT22;14851;51.166;4.760;2022-11-14T09:47:17;3.50;99.90
27384;DHT22;14851;51.166;4.760;2022-11-14T09:52:55;3.70;99.90
27384;DHT22;14851;51.166;4.760;2022-11-14T09:55:40;3.80;99.90
27384;DHT22;14851;51.166;4.760;2022-11-14T09:58:25;3.80;99.90
27384;DHT22;14851;51.166;4.760;2022-11-14T10:01:23;4.00;99.90
27384;DHT22;14851;51.166;4.760;2022-11-14T10:10:46;4.00;99.90
27384;DHT22;14851;51.166;4.760;2022-11-14T10:16:40;4.20;99.90
27384;DHT22;14851;51.166;4.760;2022-11-14T10:19:41;4.30;99.90
27384;DHT22;14851;51.166;4.760;2022-11-14T10:28:32;4.60;99.90
27384;DHT22;14851;51.166;4.760;2022-11-14T10:32:04;4.80;99.90
27384;DHT22;14851;51.166;4.760;2022-11-14T10:37:24;5.00;99.90
27384;DHT22;14851;51.166;4.760;2022-11-14T10:40:17;5.00;99.90
27384;DHT22;14851;51.166;4.760;2022-11-14T10:43:13;5.60;99.90
27384;DHT22;14851;51.166;4.760;2022-11-14T10:49:23;7.80;99.90
27384;DHT22;14851;51.166;4.760;2022-11-14T10:52:15;8.20;99.90
27384;DHT22;14851;51.166;4.760;2022-11-14T10:55:16;8.80;99.90
27384;DHT22;14851;51.166;4.760;2022-11-14T10:58:12;8.70;99.90
27384;DHT22;14851;51.166;4.760;2022-11-14T11:04:36;7.40;99.90
27384;DHT22;14851;51.166;4.760;2022-11-14T11:07:24;7.00;99.90
27384;DHT22;14851;51.166;4.760;2022-11-14T11:10:27;6.70;99.90
27384;DHT22;14851;51.166;4.760;2022-11-14T11:13:34;6.60;99.90
27384;DHT22;14851;51.166;4.760;2022-11-14T11:16:21;6.60;99.90
27384;DHT22;14851;51.166;4.760;2022-11-14T11:19:25;6.60;99.90
27384;DHT22;14851;51.166;4.760;2022-11-14T11:22:25;6.40;99.90
27384;DHT22;14851;51.166;4.760;2022-11-14T11:25:27;6.40;99.90
27384;DHT22;14851;51.166;4.760;2022-11-14T11:28:17;6.40;99.90
27384;DHT22;14851;51.166;4.760;2022-11-14T11:31:03;6.40;99.90
27384;DHT22;14851;51.166;4.760;2022-11-14T11:33:51;6.40;99.90
27384;DHT22;14851;51.166;4.760;2022-11-14T11:36:39;6.50;99.90
27384;DHT22;14851;51.166;4.760;2022-11-14T11:39:30;6.60;99.90
27384;DHT22;14851;51.166;4.760;2022-11-14T11:42:22;6.70;99.90
27384;DHT22;14851;51.166;4.760;2022-11-14T11:45:15;6.80;99.90
27384;DHT22;14851;51.166;4.760;2022-11-14T11:48:22;6.80;99.90
27384;DHT22;14851;51.166;4.760;2022-11-14T11:51:21;7.00;99.90
27384;DHT22;14851;51.166;4.760;2022-11-14T11:54:35;7.00;99.90
27384;DHT22;14851;51.166;4.760;2022-11-14T11:57:18;7.00;99.90
27384;DHT22;14851;51.166;4.760;2022-11-14T12:00:18;7.00;99.90
27384;DHT22;14851;51.166;4.760;2022-11-14T12:03:10;7.10;99.90
27384;DHT22;14851;51.166;4.760;2022-11-14T12:09:09;7.20;99.90
27384;DHT22;14851;51.166;4.760;2022-11-14T12:12:07;7.10;99.90
27384;DHT22;14851;51.166;4.760;2022-11-14T12:18:09;7.20;99.90
27384;DHT22;14851;51.166;4.760;2022-11-14T12:21:10;7.30;99.90
27384;DHT22;14851;51.166;4.760;2022-11-14T12:30:20;7.30;99.90
27384;DHT22;14851;51.166;4.760;2022-11-14T12:33:10;7.40;99.90
27384;DHT22;14851;51.166;4.760;2022-11-14T12:36:07;7.40;99.90
27384;DHT22;14851;51.166;4.760;2022-11-14T12:38:55;7.40;99.90
27384;DHT22;14851;51.166;4.760;2022-11-14T12:41:42;7.40;99.90
27384;DHT22;14851;51.166;4.760;2022-11-14T12:47:13;7.40;99.90
27384;DHT22;14851;51.166;4.760;2022-11-14T12:50:00;7.40;99.90
27384;DHT22;14851;51.166;4.760;2022-11-14T12:52:50;7.40;99.90
27384;DHT22;14851;51.166;4.760;2022-11-14T13:04:51;7.50;99.90
27384;DHT22;14851;51.166;4.760;2022-11-14T13:10:49;7.60;99.90
27384;DHT22;14851;51.166;4.760;2022-11-14T13:13:59;7.60;99.90
27384;DHT22;14851;51.166;4.760;2022-11-14T13:17:24;7.70;99.90
27384;DHT22;14851;51.166;4.760;2022-11-14T13:20:34;7.70;99.90
27384;DHT22;14851;51.166;4.760;2022-11-14T13:35:36;7.60;99.90
27384;DHT22;14851;51.166;4.760;2022-11-14T13:41:35;7.50;99.90
27384;DHT22;14851;51.166;4.760;2022-11-14T13:44:31;7.50;99.90
27384;DHT22;14851;51.166;4.760;2022-11-14T13:50:48;7.30;99.90
27384;DHT22;14851;51.166;4.760;2022-11-14T13:53:33;7.30;99.90
27384;DHT22;14851;51.166;4.760;2022-11-14T14:00:00;7.30;99.90
27384;DHT22;14851;51.166;4.760;2022-11-14T14:17:11;7.00;99.90
27384;DHT22;14851;51.166;4.760;2022-11-14T14:23:21;6.80;99.90
27384;DHT22;14851;51.166;4.760;2022-11-14T14:32:23;6.70;99.90
27384;DHT22;14851;51.166;4.760;2022-11-14T14:35:23;6.70;99.90
27384;DHT22;14851;51.166;4.760;2022-11-14T14:38:11;6.60;99.90
27384;DHT22;14851;51.166;4.760;2022-11-14T14:40:55;6.60;99.90
27384;DHT22;14851;51.166;4.760;2022-11-14T14:43:41;6.50;99.90
27384;DHT22;14851;51.166;4.760;2022-11-14T14:46:30;6.50;99.90
27384;DHT22;14851;51.166;4.760;2022-11-14T14:49:28;6.50;99.90
27384;DHT22;14851;51.166;4.760;2022-11-14T14:55:24;6.50;99.90
27384;DHT22;14851;51.166;4.760;2022-11-14T15:01:13;6.50;99.90
27384;DHT22;14851;51.166;4.760;2022-11-14T15:04:05;6.50;99.90
27384;DHT22;14851;51.166;4.760;2022-11-14T15:06:50;6.50;99.90
27384;DHT22;14851;51.166;4.760;2022-11-14T15:09:35;6.50;99.90
27384;DHT22;14851;51.166;4.760;2022-11-14T15:12:21;6.50;99.90
27384;DHT22;14851;51.166;4.760;2022-11-14T15:15:11;6.50;99.90
27384;DHT22;14851;51.166;4.760;2022-11-14T15:18:01;6.40;99.90
27384;DHT22;14851;51.166;4.760;2022-11-14T15:21:08;6.40;99.90
27384;DHT22;14851;51.166;4.760;2022-11-14T15:24:16;6.50;99.90
27384;DHT22;14851;51.166;4.760;2022-11-14T15:27:19;6.50;99.90
27384;DHT22;14851;51.166;4.760;2022-11-14T15:30:06;6.40;99.90
27384;DHT22;14851;51.166;4.760;2022-11-14T15:32:58;6.50;99.90
27384;DHT22;14851;51.166;4.760;2022-11-14T15:35:43;6.50;99.90
27384;DHT22;14851;51.166;4.760;2022-11-14T15:38:28;6.40;99.90
27384;DHT22;14851;51.166;4.760;2022-11-14T15:41:20;6.40;99.90
27384;DHT22;14851;51.166;4.760;2022-11-14T15:44:26;6.40;99.90
27384;DHT22;14851;51.166;4.760;2022-11-14T15:47:57;6.50;99.90
27384;DHT22;14851;51.166;4.760;2022-11-14T15:53:05;6.50;99.90
27384;DHT22;14851;51.166;4.760;2022-11-14T15:55:52;6.40;99.90
27384;DHT22;14851;51.166;4.760;2022-11-14T15:58:37;6.40;99.90
27384;DHT22;14851;51.166;4.760;2022-11-14T16:01:22;6.40;99.90
27384;DHT22;14851;51.166;4.760;2022-11-14T16:04:16;6.40;99.90
27384;DHT22;14851;51.166;4.760;2022-11-14T16:07:01;6.50;99.90
27384;DHT22;14851;51.166;4.760;2022-11-14T16:09:46;6.50;99.90
27384;DHT22;14851;51.166;4.760;2022-11-14T16:12:31;6.40;99.90
27384;DHT22;14851;51.166;4.760;2022-11-14T16:15:17;6.40;99.90
27384;DHT22;14851;51.166;4.760;2022-11-14T16:18:04;6.40;99.90
27384;DHT22;14851;51.166;4.760;2022-11-14T16:20:48;6.30;99.90
27384;DHT22;14851;51.166;4.760;2022-11-14T16:23:34;6.40;99.90
27384;DHT22;14851;51.166;4.760;2022-11-14T16:26:22;6.40;99.90
27384;DHT22;14851;51.166;4.760;2022-11-14T16:29:08;6.40;99.90
27384;DHT22;14851;51.166;4.760;2022-11-14T16:31:53;6.40;99.90
27384;DHT22;14851;51.166;4.760;2022-11-14T16:34:38;6.40;99.90
27384;DHT22;14851;51.166;4.760;2022-11-14T16:37:25;6.50;99.90
27384;DHT22;14851;51.166;4.760;2022-11-14T16:42:59;6.50;99.90
27384;DHT22;14851;51.166;4.760;2022-11-14T16:45:44;6.50;99.90
27384;DHT22;14851;51.166;4.760;2022-11-14T16:48:29;6.50;99.90
27384;DHT22;14851;51.166;4.760;2022-11-14T16:51:13;6.50;99.90
27384;DHT22;14851;51.166;4.760;2022-11-14T16:54:00;6.60;99.90
27384;DHT22;14851;51.166;4.760;2022-11-14T16:56:50;6.50;99.90
27384;DHT22;14851;51.166;4.760;2022-11-14T16:59:34;6.50;99.90
27384;DHT22;14851;51.166;4.760;2022-11-14T17:02:19;6.60;99.90
27384;DHT22;14851;51.166;4.760;2022-11-14T17:05:05;6.60;99.90
27384;DHT22;14851;51.166;4.760;2022-11-14T17:07:49;6.60;99.90
27384;DHT22;14851;51.166;4.760;2022-11-14T17:10:39;6.60;99.90
27384;DHT22;14851;51.166;4.760;2022-11-14T17:13:24;6.60;99.90
27384;DHT22;14851;51.166;4.760;2022-11-14T17:16:08;6.60;99.90
27384;DHT22;14851;51.166;4.760;2022-11-14T17:18:53;6.50;99.90
27384;DHT22;14851;51.166;4.760;2022-11-14T17:21:38;6.50;99.90
27384;DHT22;14851;51.166;4.760;2022-11-14T17:24:23;6.50;99.90
27384;DHT22;14851;51.166;4.760;2022-11-14T17:27:10;6.50;99.90
27384;DHT22;14851;51.166;4.760;2022-11-14T17:29:57;6.70;99.90
27384;DHT22;14851;51.166;4.760;2022-11-14T17:32:42;6.60;99.90
27384;DHT22;14851;51.166;4.760;2022-11-14T17:35:28;6.60;99.90
27384;DHT22;14851;51.166;4.760;2022-11-14T17:38:13;6.60;99.90
27384;DHT22;14851;51.166;4.760;2022-11-14T17:40:58;6.70;99.90
27384;DHT22;14851;51.166;4.760;2022-11-14T17:43:43;6.70;99.90
27384;DHT22;14851;51.166;4.760;2022-11-14T17:46:29;6.70;99.90
27384;DHT22;14851;51.166;4.760;2022-11-14T17:49:13;6.70;99.90
27384;DHT22;14851;51.166;4.760;2022-11-14T17:51:58;6.70;99.90
27384;DHT22;14851;51.166;4.760;2022-11-14T17:54:42;6.70;99.90
27384;DHT22;14851;51.166;4.760;2022-11-14T17:57:29;6.70;99.90
27384;DHT22;14851;51.166;4.760;2022-11-14T18:00:14;6.70;99.90
27384;DHT22;14851;51.166;4.760;2022-11-14T18:02:59;6.70;99.90
27384;DHT22;14851;51.166;4.760;2022-11-14T18:05:43;6.70;99.90
27384;DHT22;14851;51.166;4.760;2022-11-14T18:08:28;6.70;99.90
27384;DHT22;14851;51.166;4.760;2022-11-14T18:11:14;6.70;99.90
27384;DHT22;14851;51.166;4.760;2022-11-14T18:14:02;6.70;99.90
27384;DHT22;14851;51.166;4.760;2022-11-14T18:16:47;6.70;99.90
27384;DHT22;14851;51.166;4.760;2022-11-14T18:19:32;6.80;99.90
27384;DHT22;14851;51.166;4.760;2022-11-14T18:22:17;6.70;99.90
27384;DHT22;14851;51.166;4.760;2022-11-14T18:25:02;6.70;99.90
27384;DHT22;14851;51.166;4.760;2022-11-14T18:27:46;6.80;99.90
27384;DHT22;14851;51.166;4.760;2022-11-14T18:30:31;6.80;99.90
27384;DHT22;14851;51.166;4.760;2022-11-14T18:33:15;6.80;99.90
27384;DHT22;14851;51.166;4.760;2022-11-14T18:36:03;6.80;99.90
27384;DHT22;14851;51.166;4.760;2022-11-14T18:38:51;6.80;99.90
27384;DHT22;14851;51.166;4.760;2022-11-14T18:41:36;6.80;99.90
27384;DHT22;14851;51.166;4.760;2022-11-14T18:44:20;6.80;99.90
27384;DHT22;14851;51.166;4.760;2022-11-14T18:47:07;6.80;99.90
27384;DHT22;14851;51.166;4.760;2022-11-14T18:49:51;6.80;99.90
27384;DHT22;14851;51.166;4.760;2022-11-14T18:52:43;6.90;99.90
27384;DHT22;14851;51.166;4.760;2022-11-14T18:55:27;6.90;99.90
27384;DHT22;14851;51.166;4.760;2022-11-14T18:58:12;6.90;99.90
27384;DHT22;14851;51.166;4.760;2022-11-14T19:00:57;6.90;99.90
27384;DHT22;14851;51.166;4.760;2022-11-14T19:03:44;6.90;99.90
27384;DHT22;14851;51.166;4.760;2022-11-14T19:06:30;6.90;99.90
27384;DHT22;14851;51.166;4.760;2022-11-14T19:09:14;6.90;99.90
27384;DHT22;14851;51.166;4.760;2022-11-14T19:12:12;6.90;99.90
27384;DHT22;14851;51.166;4.760;2022-11-14T19:15:08;6.90;99.90
27384;DHT22;14851;51.166;4.760;2022-11-14T19:18:07;7.00;99.90
27384;DHT22;14851;51.166;4.760;2022-11-14T19:21:02;7.00;99.90
27384;DHT22;14851;51.166;4.760;2022-11-14T19:23:47;7.00;99.90
27384;DHT22;14851;51.166;4.760;2022-11-14T19:26:36;7.00;99.90
27384;DHT22;14851;51.166;4.760;2022-11-14T19:29:29;7.00;99.90
27384;DHT22;14851;51.166;4.760;2022-11-14T19:32:16;7.00;99.90
27384;DHT22;14851;51.166;4.760;2022-11-14T19:35:07;7.00;99.90
27384;DHT22;14851;51.166;4.760;2022-11-14T19:37:52;7.00;99.90
27384;DHT22;14851;51.166;4.760;2022-11-14T19:40:41;7.00;99.90
27384;DHT22;14851;51.166;4.760;2022-11-14T19:43:26;7.00;99.90
27384;DHT22;14851;51.166;4.760;2022-11-14T19:46:11;7.00;99.90
27384;DHT22;14851;51.166;4.760;2022-11-14T19:48:59;7.00;99.90
27384;DHT22;14851;51.166;4.760;2022-11-14T19:51:44;7.10;99.90
27384;DHT22;14851;51.166;4.760;2022-11-14T19:54:29;7.10;99.90
27384;DHT22;14851;51.166;4.760;2022-11-14T19:57:14;7.10;99.90
27384;DHT22;14851;51.166;4.760;2022-11-14T20:00:02;7.10;99.90
27384;DHT22;14851;51.166;4.760;2022-11-14T20:02:46;7.10;99.90
27384;DHT22;14851;51.166;4.760;2022-11-14T20:05:31;7.10;99.90